sensor_id;sensor_type;location;lat;lon;timestamp;P1;durP1;ratioP1;P2;durP2;ratioP2
70406;SDS011;57821;52.202;0.154;2022-10-31T00:00:01;18.20;;;4.28;;
70406;SDS011;57821;52.202;0.154;2022-10-31T00:02:36;20.02;;;4.05;;
70406;SDS011;57821;52.202;0.154;2022-10-31T00:05:03;20.85;;;3.92;;
70406;SDS011;57821;52.202;0.154;2022-10-31T00:07:29;24.67;;;4.03;;
70406;SDS011;57821;52.202;0.154;2022-10-31T00:09:56;19.77;;;3.75;;
70406;SDS011;57821;52.202;0.154;2022-10-31T00:12:22;22.85;;;4.07;;
70406;SDS011;57821;52.202;0.154;2022-10-31T00:14:49;24.23;;;4.43;;
70406;SDS011;57821;52.202;0.154;2022-10-31T00:17:15;29.75;;;4.82;;
70406;SDS011;57821;52.202;0.154;2022-10-31T00:19:42;29.90;;;3.83;;
70406;SDS011;57821;52.202;0.154;2022-10-31T00:22:08;26.50;;;4.32;;
70406;SDS011;57821;52.202;0.154;2022-10-31T00:24:35;34.70;;;4.57;;
70406;SDS011;57821;52.202;0.154;2022-10-31T00:27:01;19.00;;;3.78;;
70406;SDS011;57821;52.202;0.154;2022-10-31T00:29:28;16.33;;;3.72;;
70406;SDS011;57821;52.202;0.154;2022-10-31T00:31:54;23.08;;;3.80;;
70406;SDS011;57821;52.202;0.154;2022-10-31T00:34:21;22.85;;;4.05;;
70406;SDS011;57821;52.202;0.154;2022-10-31T00:36:47;22.60;;;3.70;;
70406;SDS011;57821;52.202;0.154;2022-10-31T00:39:14;27.40;;;4.75;;
70406;SDS011;57821;52.202;0.154;2022-10-31T00:41:40;18.48;;;3.60;;
70406;SDS011;57821;52.202;0.154;2022-10-31T00:44:11;18.33;;;2.95;;
70406;SDS011;57821;52.202;0.154;2022-10-31T00:46:37;17.48;;;3.25;;
70406;SDS011;57821;52.202;0.154;2022-10-31T00:49:04;22.77;;;3.55;;
70406;SDS011;57821;52.202;0.154;2022-10-31T00:51:30;17.15;;;3.63;;
70406;SDS011;57821;52.202;0.154;2022-10-31T00:53:57;25.67;;;3.90;;
70406;SDS011;57821;52.202;0.154;2022-10-31T00:56:24;27.90;;;4.18;;
70406;SDS011;57821;52.202;0.154;2022-10-31T00:58:50;23.63;;;3.75;;
70406;SDS011;57821;52.202;0.154;2022-10-31T01:01:19;23.70;;;4.28;;
70406;SDS011;57821;52.202;0.154;2022-10-31T01:03:46;17.90;;;3.67;;
70406;SDS011;57821;52.202;0.154;2022-10-31T01:06:13;28.75;;;4.20;;
70406;SDS011;57821;52.202;0.154;2022-10-31T01:08:39;24.00;;;3.75;;
70406;SDS011;57821;52.202;0.154;2022-10-31T01:13:34;21.10;;;3.40;;
70406;SDS011;57821;52.202;0.154;2022-10-31T01:16:02;28.95;;;4.30;;
70406;SDS011;57821;52.202;0.154;2022-10-31T01:18:31;25.40;;;3.85;;
70406;SDS011;57821;52.202;0.154;2022-10-31T01:21:02;20.38;;;3.53;;
70406;SDS011;57821;52.202;0.154;2022-10-31T01:23:34;25.88;;;4.05;;
70406;SDS011;57821;52.202;0.154;2022-10-31T01:28:51;20.52;;;4.72;;
70406;SDS011;57821;52.202;0.154;2022-10-31T01:31:20;20.15;;;3.20;;
70406;SDS011;57821;52.202;0.154;2022-10-31T01:33:48;25.55;;;3.67;;
70406;SDS011;57821;52.202;0.154;2022-10-31T01:38:41;24.73;;;3.80;;
70406;SDS011;57821;52.202;0.154;2022-10-31T01:41:09;19.77;;;3.72;;
70406;SDS011;57821;52.202;0.154;2022-10-31T01:48:56;20.63;;;3.70;;
70406;SDS011;57821;52.202;0.154;2022-10-31T01:51:26;16.85;;;3.30;;
70406;SDS011;57821;52.202;0.154;2022-10-31T01:53:57;18.52;;;3.85;;
70406;SDS011;57821;52.202;0.154;2022-10-31T01:56:27;23.85;;;3.85;;
70406;SDS011;57821;52.202;0.154;2022-10-31T01:58:54;29.65;;;3.83;;
70406;SDS011;57821;52.202;0.154;2022-10-31T02:01:23;25.98;;;5.07;;
70406;SDS011;57821;52.202;0.154;2022-10-31T02:03:49;25.02;;;4.40;;
70406;SDS011;57821;52.202;0.154;2022-10-31T02:06:21;23.95;;;3.63;;
70406;SDS011;57821;52.202;0.154;2022-10-31T02:08:58;20.67;;;4.03;;
70406;SDS011;57821;52.202;0.154;2022-10-31T02:11:27;22.42;;;3.42;;
70406;SDS011;57821;52.202;0.154;2022-10-31T02:13:55;28.40;;;4.30;;
70406;SDS011;57821;52.202;0.154;2022-10-31T02:16:22;28.75;;;3.97;;
70406;SDS011;57821;52.202;0.154;2022-10-31T02:18:49;16.70;;;4.07;;
70406;SDS011;57821;52.202;0.154;2022-10-31T02:23:52;15.98;;;3.60;;
70406;SDS011;57821;52.202;0.154;2022-10-31T02:26:41;26.48;;;3.35;;
70406;SDS011;57821;52.202;0.154;2022-10-31T02:29:20;19.75;;;3.85;;
70406;SDS011;57821;52.202;0.154;2022-10-31T02:32:05;18.83;;;4.93;;
70406;SDS011;57821;52.202;0.154;2022-10-31T02:37:14;26.70;;;3.97;;
70406;SDS011;57821;52.202;0.154;2022-10-31T02:42:50;15.30;;;3.28;;
70406;SDS011;57821;52.202;0.154;2022-10-31T02:45:28;19.88;;;3.83;;
70406;SDS011;57821;52.202;0.154;2022-10-31T02:48:00;20.45;;;3.20;;
70406;SDS011;57821;52.202;0.154;2022-10-31T02:50:34;22.58;;;5.25;;
70406;SDS011;57821;52.202;0.154;2022-10-31T02:53:05;28.35;;;3.97;;
70406;SDS011;57821;52.202;0.154;2022-10-31T02:58:04;17.08;;;3.95;;
70406;SDS011;57821;52.202;0.154;2022-10-31T03:00:43;19.00;;;3.80;;
70406;SDS011;57821;52.202;0.154;2022-10-31T03:04:04;23.50;;;3.75;;
70406;SDS011;57821;52.202;0.154;2022-10-31T03:06:29;22.60;;;4.03;;
70406;SDS011;57821;52.202;0.154;2022-10-31T03:11:38;25.13;;;4.50;;
70406;SDS011;57821;52.202;0.154;2022-10-31T03:14:35;21.67;;;4.53;;
70406;SDS011;57821;52.202;0.154;2022-10-31T03:17:13;22.27;;;4.40;;
70406;SDS011;57821;52.202;0.154;2022-10-31T03:19:45;23.15;;;4.25;;
70406;SDS011;57821;52.202;0.154;2022-10-31T03:22:19;24.88;;;5.20;;
70406;SDS011;57821;52.202;0.154;2022-10-31T03:24:48;22.73;;;4.80;;
70406;SDS011;57821;52.202;0.154;2022-10-31T03:27:23;22.45;;;4.32;;
70406;SDS011;57821;52.202;0.154;2022-10-31T03:29:53;22.58;;;4.13;;
70406;SDS011;57821;52.202;0.154;2022-10-31T03:32:24;19.70;;;4.55;;
70406;SDS011;57821;52.202;0.154;2022-10-31T03:34:57;18.92;;;5.15;;
70406;SDS011;57821;52.202;0.154;2022-10-31T03:37:28;16.98;;;4.32;;
70406;SDS011;57821;52.202;0.154;2022-10-31T03:39:58;22.95;;;5.03;;
70406;SDS011;57821;52.202;0.154;2022-10-31T03:42:28;22.30;;;5.50;;
70406;SDS011;57821;52.202;0.154;2022-10-31T03:44:58;30.50;;;5.60;;
70406;SDS011;57821;52.202;0.154;2022-10-31T03:47:30;32.60;;;7.00;;
70406;SDS011;57821;52.202;0.154;2022-10-31T03:49:58;22.88;;;7.22;;
70406;SDS011;57821;52.202;0.154;2022-10-31T04:00:35;32.10;;;8.52;;
70406;SDS011;57821;52.202;0.154;2022-10-31T04:03:10;35.35;;;9.38;;
70406;SDS011;57821;52.202;0.154;2022-10-31T04:05:45;29.35;;;8.85;;
70406;SDS011;57821;52.202;0.154;2022-10-31T04:08:15;31.58;;;8.20;;
70406;SDS011;57821;52.202;0.154;2022-10-31T04:13:16;30.08;;;7.78;;
70406;SDS011;57821;52.202;0.154;2022-10-31T04:15:55;26.95;;;8.20;;
70406;SDS011;57821;52.202;0.154;2022-10-31T04:18:24;23.88;;;7.57;;
70406;SDS011;57821;52.202;0.154;2022-10-31T04:21:05;25.98;;;7.65;;
70406;SDS011;57821;52.202;0.154;2022-10-31T04:23:34;23.00;;;7.25;;
70406;SDS011;57821;52.202;0.154;2022-10-31T04:26:16;24.33;;;6.88;;
70406;SDS011;57821;52.202;0.154;2022-10-31T04:28:43;28.45;;;7.18;;
70406;SDS011;57821;52.202;0.154;2022-10-31T04:31:11;36.00;;;6.53;;
70406;SDS011;57821;52.202;0.154;2022-10-31T04:33:38;28.80;;;7.63;;
70406;SDS011;57821;52.202;0.154;2022-10-31T04:36:05;25.20;;;7.07;;
70406;SDS011;57821;52.202;0.154;2022-10-31T04:38:32;28.85;;;7.03;;
70406;SDS011;57821;52.202;0.154;2022-10-31T04:40:58;31.45;;;7.07;;
70406;SDS011;57821;52.202;0.154;2022-10-31T04:43:48;30.52;;;8.13;;
70406;SDS011;57821;52.202;0.154;2022-10-31T04:46:15;34.17;;;7.45;;
70406;SDS011;57821;52.202;0.154;2022-10-31T04:48:41;34.03;;;9.18;;
70406;SDS011;57821;52.202;0.154;2022-10-31T04:51:09;31.85;;;6.97;;
70406;SDS011;57821;52.202;0.154;2022-10-31T04:53:36;37.30;;;7.95;;
70406;SDS011;57821;52.202;0.154;2022-10-31T04:56:22;26.58;;;8.68;;
70406;SDS011;57821;52.202;0.154;2022-10-31T04:58:55;26.25;;;7.65;;
70406;SDS011;57821;52.202;0.154;2022-10-31T05:01:23;34.22;;;8.00;;
70406;SDS011;57821;52.202;0.154;2022-10-31T05:03:49;29.50;;;8.02;;
70406;SDS011;57821;52.202;0.154;2022-10-31T05:06:16;27.75;;;8.73;;
70406;SDS011;57821;52.202;0.154;2022-10-31T05:08:44;29.60;;;7.85;;
70406;SDS011;57821;52.202;0.154;2022-10-31T05:11:11;29.77;;;8.25;;
70406;SDS011;57821;52.202;0.154;2022-10-31T05:13:38;32.45;;;8.10;;
70406;SDS011;57821;52.202;0.154;2022-10-31T05:16:24;31.10;;;9.32;;
70406;SDS011;57821;52.202;0.154;2022-10-31T05:19:14;35.13;;;9.10;;
70406;SDS011;57821;52.202;0.154;2022-10-31T05:21:44;34.58;;;9.35;;
70406;SDS011;57821;52.202;0.154;2022-10-31T05:24:10;33.50;;;8.50;;
70406;SDS011;57821;52.202;0.154;2022-10-31T05:26:39;36.75;;;8.88;;
70406;SDS011;57821;52.202;0.154;2022-10-31T05:29:05;31.67;;;8.65;;
70406;SDS011;57821;52.202;0.154;2022-10-31T05:31:32;31.75;;;8.98;;
70406;SDS011;57821;52.202;0.154;2022-10-31T05:34:02;31.67;;;7.72;;
70406;SDS011;57821;52.202;0.154;2022-10-31T05:37:00;29.85;;;7.20;;
70406;SDS011;57821;52.202;0.154;2022-10-31T05:39:27;29.48;;;7.13;;
70406;SDS011;57821;52.202;0.154;2022-10-31T05:41:58;29.73;;;6.50;;
70406;SDS011;57821;52.202;0.154;2022-10-31T05:44:25;30.13;;;7.00;;
70406;SDS011;57821;52.202;0.154;2022-10-31T05:50:02;32.75;;;5.95;;
70406;SDS011;57821;52.202;0.154;2022-10-31T05:52:44;24.90;;;5.75;;
70406;SDS011;57821;52.202;0.154;2022-10-31T05:55:27;24.05;;;5.50;;
70406;SDS011;57821;52.202;0.154;2022-10-31T05:58:03;31.55;;;5.97;;
70406;SDS011;57821;52.202;0.154;2022-10-31T06:00:31;26.45;;;6.38;;
70406;SDS011;57821;52.202;0.154;2022-10-31T06:03:05;30.02;;;6.30;;
70406;SDS011;57821;52.202;0.154;2022-10-31T06:05:54;28.25;;;5.90;;
70406;SDS011;57821;52.202;0.154;2022-10-31T06:08:25;24.05;;;5.60;;
70406;SDS011;57821;52.202;0.154;2022-10-31T06:10:54;22.83;;;5.82;;
70406;SDS011;57821;52.202;0.154;2022-10-31T06:13:40;24.60;;;5.78;;
70406;SDS011;57821;52.202;0.154;2022-10-31T06:16:14;32.70;;;6.15;;
70406;SDS011;57821;52.202;0.154;2022-10-31T06:18:43;28.30;;;6.10;;
70406;SDS011;57821;52.202;0.154;2022-10-31T06:21:10;27.60;;;6.13;;
70406;SDS011;57821;52.202;0.154;2022-10-31T06:23:40;25.60;;;5.47;;
70406;SDS011;57821;52.202;0.154;2022-10-31T06:26:33;26.08;;;5.80;;
70406;SDS011;57821;52.202;0.154;2022-10-31T06:29:01;19.83;;;4.95;;
70406;SDS011;57821;52.202;0.154;2022-10-31T06:31:55;31.23;;;5.28;;
70406;SDS011;57821;52.202;0.154;2022-10-31T06:34:22;26.33;;;5.32;;
70406;SDS011;57821;52.202;0.154;2022-10-31T06:36:49;33.58;;;6.25;;
70406;SDS011;57821;52.202;0.154;2022-10-31T06:39:19;21.42;;;5.50;;
70406;SDS011;57821;52.202;0.154;2022-10-31T06:41:47;20.42;;;6.07;;
70406;SDS011;57821;52.202;0.154;2022-10-31T06:44:17;24.45;;;5.40;;
70406;SDS011;57821;52.202;0.154;2022-10-31T06:46:43;30.40;;;6.18;;
70406;SDS011;57821;52.202;0.154;2022-10-31T06:49:33;27.48;;;6.32;;
70406;SDS011;57821;52.202;0.154;2022-10-31T06:52:01;28.38;;;5.85;;
70406;SDS011;57821;52.202;0.154;2022-10-31T06:54:28;28.50;;;7.32;;
70406;SDS011;57821;52.202;0.154;2022-10-31T06:56:57;27.20;;;6.72;;
70406;SDS011;57821;52.202;0.154;2022-10-31T06:59:23;37.05;;;7.25;;
70406;SDS011;57821;52.202;0.154;2022-10-31T07:02:07;30.95;;;8.93;;
70406;SDS011;57821;52.202;0.154;2022-10-31T07:04:36;30.27;;;8.48;;
70406;SDS011;57821;52.202;0.154;2022-10-31T07:07:03;33.70;;;9.45;;
70406;SDS011;57821;52.202;0.154;2022-10-31T07:09:30;31.65;;;9.10;;
70406;SDS011;57821;52.202;0.154;2022-10-31T07:12:01;35.72;;;10.00;;
70406;SDS011;57821;52.202;0.154;2022-10-31T07:14:29;35.55;;;9.57;;
70406;SDS011;57821;52.202;0.154;2022-10-31T07:16:55;34.78;;;9.27;;
70406;SDS011;57821;52.202;0.154;2022-10-31T07:19:29;36.97;;;8.85;;
70406;SDS011;57821;52.202;0.154;2022-10-31T07:21:56;29.75;;;8.50;;
70406;SDS011;57821;52.202;0.154;2022-10-31T07:24:25;34.75;;;9.88;;
70406;SDS011;57821;52.202;0.154;2022-10-31T07:27:15;39.67;;;9.57;;
70406;SDS011;57821;52.202;0.154;2022-10-31T07:29:43;28.40;;;7.90;;
70406;SDS011;57821;52.202;0.154;2022-10-31T07:32:10;37.08;;;8.57;;
70406;SDS011;57821;52.202;0.154;2022-10-31T07:34:44;32.20;;;8.80;;
70406;SDS011;57821;52.202;0.154;2022-10-31T07:37:19;28.42;;;7.97;;
70406;SDS011;57821;52.202;0.154;2022-10-31T07:39:46;33.75;;;8.13;;
70406;SDS011;57821;52.202;0.154;2022-10-31T07:42:13;36.17;;;7.90;;
70406;SDS011;57821;52.202;0.154;2022-10-31T07:44:43;41.83;;;7.65;;
70406;SDS011;57821;52.202;0.154;2022-10-31T07:47:29;32.50;;;9.18;;
70406;SDS011;57821;52.202;0.154;2022-10-31T07:50:34;34.90;;;9.00;;
70406;SDS011;57821;52.202;0.154;2022-10-31T07:53:30;29.60;;;8.63;;
70406;SDS011;57821;52.202;0.154;2022-10-31T07:56:05;30.90;;;8.25;;
70406;SDS011;57821;52.202;0.154;2022-10-31T07:58:32;23.88;;;8.00;;
70406;SDS011;57821;52.202;0.154;2022-10-31T08:00:59;33.10;;;8.13;;
70406;SDS011;57821;52.202;0.154;2022-10-31T08:03:35;22.35;;;7.63;;
70406;SDS011;57821;52.202;0.154;2022-10-31T08:06:08;27.70;;;8.27;;
70406;SDS011;57821;52.202;0.154;2022-10-31T08:09:00;26.75;;;7.53;;
70406;SDS011;57821;52.202;0.154;2022-10-31T08:11:27;28.88;;;7.43;;
70406;SDS011;57821;52.202;0.154;2022-10-31T08:13:54;29.83;;;7.53;;
70406;SDS011;57821;52.202;0.154;2022-10-31T08:16:20;33.30;;;8.13;;
70406;SDS011;57821;52.202;0.154;2022-10-31T08:18:52;28.80;;;7.45;;
70406;SDS011;57821;52.202;0.154;2022-10-31T08:21:19;32.95;;;6.85;;
70406;SDS011;57821;52.202;0.154;2022-10-31T08:23:46;24.05;;;6.32;;
70406;SDS011;57821;52.202;0.154;2022-10-31T08:26:14;19.55;;;7.22;;
70406;SDS011;57821;52.202;0.154;2022-10-31T08:28:41;24.92;;;7.00;;
70406;SDS011;57821;52.202;0.154;2022-10-31T08:31:08;23.75;;;6.93;;
70406;SDS011;57821;52.202;0.154;2022-10-31T08:33:37;18.63;;;6.82;;
70406;SDS011;57821;52.202;0.154;2022-10-31T08:36:22;25.10;;;7.85;;
70406;SDS011;57821;52.202;0.154;2022-10-31T08:39:12;23.38;;;6.80;;
70406;SDS011;57821;52.202;0.154;2022-10-31T08:41:39;32.63;;;6.18;;
70406;SDS011;57821;52.202;0.154;2022-10-31T08:44:09;24.47;;;6.13;;
70406;SDS011;57821;52.202;0.154;2022-10-31T08:46:36;25.92;;;6.78;;
70406;SDS011;57821;52.202;0.154;2022-10-31T08:49:03;23.25;;;6.35;;
70406;SDS011;57821;52.202;0.154;2022-10-31T08:51:29;26.33;;;7.07;;
70406;SDS011;57821;52.202;0.154;2022-10-31T08:53:56;17.55;;;6.03;;
70406;SDS011;57821;52.202;0.154;2022-10-31T08:56:31;25.30;;;5.93;;
70406;SDS011;57821;52.202;0.154;2022-10-31T08:58:59;21.33;;;4.80;;
70406;SDS011;57821;52.202;0.154;2022-10-31T09:01:39;15.00;;;3.90;;
70406;SDS011;57821;52.202;0.154;2022-10-31T09:04:06;17.48;;;3.35;;
70406;SDS011;57821;52.202;0.154;2022-10-31T09:06:32;19.23;;;4.57;;
70406;SDS011;57821;52.202;0.154;2022-10-31T09:08:59;16.88;;;3.97;;
70406;SDS011;57821;52.202;0.154;2022-10-31T09:11:25;14.50;;;3.42;;
70406;SDS011;57821;52.202;0.154;2022-10-31T09:14:12;18.33;;;3.78;;
70406;SDS011;57821;52.202;0.154;2022-10-31T09:16:38;21.45;;;3.83;;
70406;SDS011;57821;52.202;0.154;2022-10-31T09:19:10;15.70;;;3.55;;
70406;SDS011;57821;52.202;0.154;2022-10-31T09:21:37;14.13;;;3.35;;
70406;SDS011;57821;52.202;0.154;2022-10-31T09:24:03;14.07;;;3.95;;
70406;SDS011;57821;52.202;0.154;2022-10-31T09:26:30;11.90;;;3.00;;
70406;SDS011;57821;52.202;0.154;2022-10-31T09:29:06;13.90;;;2.70;;
70406;SDS011;57821;52.202;0.154;2022-10-31T09:31:33;15.73;;;2.95;;
70406;SDS011;57821;52.202;0.154;2022-10-31T09:34:25;11.77;;;2.70;;
70406;SDS011;57821;52.202;0.154;2022-10-31T09:37:05;13.38;;;2.78;;
70406;SDS011;57821;52.202;0.154;2022-10-31T09:39:34;20.67;;;3.35;;
70406;SDS011;57821;52.202;0.154;2022-10-31T09:45:21;14.43;;;2.60;;
70406;SDS011;57821;52.202;0.154;2022-10-31T09:51:13;13.95;;;3.13;;
70406;SDS011;57821;52.202;0.154;2022-10-31T09:54:02;14.00;;;2.55;;
70406;SDS011;57821;52.202;0.154;2022-10-31T09:56:33;12.25;;;2.67;;
70406;SDS011;57821;52.202;0.154;2022-10-31T09:59:00;12.02;;;2.75;;
70406;SDS011;57821;52.202;0.154;2022-10-31T10:04:16;12.52;;;2.60;;
70406;SDS011;57821;52.202;0.154;2022-10-31T10:07:07;11.95;;;2.45;;
70406;SDS011;57821;52.202;0.154;2022-10-31T10:10:20;16.70;;;3.75;;
70406;SDS011;57821;52.202;0.154;2022-10-31T10:15:38;16.77;;;2.83;;
70406;SDS011;57821;52.202;0.154;2022-10-31T10:18:29;14.23;;;2.90;;
70406;SDS011;57821;52.202;0.154;2022-10-31T10:31:48;12.15;;;2.35;;
70406;SDS011;57821;52.202;0.154;2022-10-31T10:34:22;14.20;;;2.25;;
70406;SDS011;57821;52.202;0.154;2022-10-31T10:36:55;10.73;;;1.98;;
70406;SDS011;57821;52.202;0.154;2022-10-31T10:39:37;15.73;;;2.38;;
70406;SDS011;57821;52.202;0.154;2022-10-31T10:42:11;13.88;;;2.40;;
70406;SDS011;57821;52.202;0.154;2022-10-31T10:44:40;15.30;;;2.50;;
70406;SDS011;57821;52.202;0.154;2022-10-31T10:47:11;14.00;;;2.30;;
70406;SDS011;57821;52.202;0.154;2022-10-31T10:49:51;12.27;;;2.25;;
70406;SDS011;57821;52.202;0.154;2022-10-31T10:55:18;11.85;;;1.70;;
70406;SDS011;57821;52.202;0.154;2022-10-31T10:58:08;14.75;;;3.15;;
70406;SDS011;57821;52.202;0.154;2022-10-31T11:00:40;9.23;;;2.00;;
70406;SDS011;57821;52.202;0.154;2022-10-31T11:03:08;12.45;;;2.20;;
70406;SDS011;57821;52.202;0.154;2022-10-31T11:05:37;12.70;;;1.98;;
70406;SDS011;57821;52.202;0.154;2022-10-31T11:08:08;11.23;;;2.20;;
70406;SDS011;57821;52.202;0.154;2022-10-31T11:10:35;11.98;;;2.03;;
70406;SDS011;57821;52.202;0.154;2022-10-31T11:13:06;14.95;;;2.42;;
70406;SDS011;57821;52.202;0.154;2022-10-31T11:15:56;12.45;;;1.70;;
70406;SDS011;57821;52.202;0.154;2022-10-31T11:18:31;17.35;;;2.35;;
70406;SDS011;57821;52.202;0.154;2022-10-31T11:21:01;12.35;;;2.22;;
70406;SDS011;57821;52.202;0.154;2022-10-31T11:23:29;10.38;;;2.05;;
70406;SDS011;57821;52.202;0.154;2022-10-31T11:25:59;13.50;;;1.80;;
70406;SDS011;57821;52.202;0.154;2022-10-31T11:28:28;9.38;;;1.73;;
70406;SDS011;57821;52.202;0.154;2022-10-31T11:30:56;10.27;;;1.80;;
70406;SDS011;57821;52.202;0.154;2022-10-31T11:35:54;11.45;;;2.13;;
70406;SDS011;57821;52.202;0.154;2022-10-31T11:38:32;9.25;;;2.10;;
70406;SDS011;57821;52.202;0.154;2022-10-31T11:41:10;12.40;;;1.88;;
70406;SDS011;57821;52.202;0.154;2022-10-31T11:44:02;12.23;;;1.50;;
70406;SDS011;57821;52.202;0.154;2022-10-31T11:46:36;11.05;;;2.08;;
70406;SDS011;57821;52.202;0.154;2022-10-31T11:49:11;11.20;;;1.75;;
70406;SDS011;57821;52.202;0.154;2022-10-31T11:51:46;9.23;;;1.50;;
70406;SDS011;57821;52.202;0.154;2022-10-31T11:54:22;12.80;;;1.80;;
70406;SDS011;57821;52.202;0.154;2022-10-31T11:56:53;12.75;;;1.92;;
70406;SDS011;57821;52.202;0.154;2022-10-31T11:59:29;8.32;;;1.65;;
70406;SDS011;57821;52.202;0.154;2022-10-31T12:01:58;9.80;;;1.70;;
70406;SDS011;57821;52.202;0.154;2022-10-31T12:04:40;7.43;;;1.40;;
70406;SDS011;57821;52.202;0.154;2022-10-31T12:07:10;7.93;;;1.48;;
70406;SDS011;57821;52.202;0.154;2022-10-31T12:09:36;11.57;;;1.67;;
70406;SDS011;57821;52.202;0.154;2022-10-31T12:17:22;8.35;;;1.13;;
70406;SDS011;57821;52.202;0.154;2022-10-31T12:26:02;14.07;;;1.77;;
70406;SDS011;57821;52.202;0.154;2022-10-31T12:36:29;9.57;;;1.70;;
70406;SDS011;57821;52.202;0.154;2022-10-31T12:39:19;11.38;;;1.80;;
70406;SDS011;57821;52.202;0.154;2022-10-31T12:47:28;7.90;;;1.70;;
70406;SDS011;57821;52.202;0.154;2022-10-31T12:55:41;12.30;;;1.80;;
70406;SDS011;57821;52.202;0.154;2022-10-31T12:58:14;10.20;;;2.38;;
70406;SDS011;57821;52.202;0.154;2022-10-31T13:00:48;8.35;;;2.20;;
70406;SDS011;57821;52.202;0.154;2022-10-31T13:03:30;8.00;;;2.00;;
70406;SDS011;57821;52.202;0.154;2022-10-31T13:06:06;8.52;;;2.30;;
70406;SDS011;57821;52.202;0.154;2022-10-31T13:08:47;8.70;;;1.80;;
70406;SDS011;57821;52.202;0.154;2022-10-31T13:11:20;8.50;;;2.00;;
70406;SDS011;57821;52.202;0.154;2022-10-31T13:14:11;9.95;;;1.77;;
70406;SDS011;57821;52.202;0.154;2022-10-31T13:16:47;8.23;;;1.83;;
70406;SDS011;57821;52.202;0.154;2022-10-31T13:19:19;8.60;;;2.20;;
70406;SDS011;57821;52.202;0.154;2022-10-31T13:24:58;9.93;;;2.95;;
70406;SDS011;57821;52.202;0.154;2022-10-31T13:27:35;10.02;;;2.22;;
70406;SDS011;57821;52.202;0.154;2022-10-31T13:32:51;8.30;;;1.85;;
70406;SDS011;57821;52.202;0.154;2022-10-31T13:35:25;6.53;;;1.90;;
70406;SDS011;57821;52.202;0.154;2022-10-31T13:43:46;9.00;;;1.90;;
70406;SDS011;57821;52.202;0.154;2022-10-31T13:46:21;9.20;;;2.78;;
70406;SDS011;57821;52.202;0.154;2022-10-31T13:48:50;11.52;;;1.75;;
70406;SDS011;57821;52.202;0.154;2022-10-31T13:51:24;6.53;;;1.80;;
70406;SDS011;57821;52.202;0.154;2022-10-31T13:56:29;10.38;;;2.50;;
70406;SDS011;57821;52.202;0.154;2022-10-31T14:01:37;9.35;;;2.22;;
70406;SDS011;57821;52.202;0.154;2022-10-31T14:04:18;9.60;;;1.67;;
70406;SDS011;57821;52.202;0.154;2022-10-31T14:06:53;12.57;;;1.58;;
70406;SDS011;57821;52.202;0.154;2022-10-31T14:09:25;6.28;;;1.63;;
70406;SDS011;57821;52.202;0.154;2022-10-31T14:11:55;8.98;;;1.30;;
70406;SDS011;57821;52.202;0.154;2022-10-31T14:14:28;7.70;;;1.52;;
70406;SDS011;57821;52.202;0.154;2022-10-31T14:16:58;9.15;;;1.70;;
70406;SDS011;57821;52.202;0.154;2022-10-31T14:19:25;11.68;;;2.65;;
70406;SDS011;57821;52.202;0.154;2022-10-31T14:21:52;8.60;;;1.50;;
70406;SDS011;57821;52.202;0.154;2022-10-31T14:26:58;6.40;;;1.45;;
70406;SDS011;57821;52.202;0.154;2022-10-31T14:29:33;10.48;;;1.95;;
70406;SDS011;57821;52.202;0.154;2022-10-31T14:32:05;7.68;;;1.42;;
70406;SDS011;57821;52.202;0.154;2022-10-31T14:51:15;7.43;;;1.42;;
70406;SDS011;57821;52.202;0.154;2022-10-31T14:53:46;11.82;;;1.50;;
70406;SDS011;57821;52.202;0.154;2022-10-31T14:56:20;8.98;;;1.42;;
70406;SDS011;57821;52.202;0.154;2022-10-31T14:58:51;10.27;;;1.50;;
70406;SDS011;57821;52.202;0.154;2022-10-31T15:01:25;11.07;;;1.85;;
70406;SDS011;57821;52.202;0.154;2022-10-31T15:03:58;15.27;;;2.05;;
70406;SDS011;57821;52.202;0.154;2022-10-31T15:06:54;10.55;;;2.67;;
70406;SDS011;57821;52.202;0.154;2022-10-31T15:09:28;13.27;;;1.70;;
70406;SDS011;57821;52.202;0.154;2022-10-31T15:11:58;10.98;;;2.55;;
70406;SDS011;57821;52.202;0.154;2022-10-31T15:14:27;13.18;;;2.22;;
70406;SDS011;57821;52.202;0.154;2022-10-31T15:16:56;9.82;;;1.95;;
70406;SDS011;57821;52.202;0.154;2022-10-31T15:19:24;7.13;;;1.63;;
70406;SDS011;57821;52.202;0.154;2022-10-31T15:21:54;9.07;;;1.98;;
70406;SDS011;57821;52.202;0.154;2022-10-31T15:24:23;11.38;;;2.75;;
70406;SDS011;57821;52.202;0.154;2022-10-31T15:26:57;11.60;;;2.25;;
70406;SDS011;57821;52.202;0.154;2022-10-31T15:29:30;13.23;;;1.90;;
70406;SDS011;57821;52.202;0.154;2022-10-31T15:34:38;8.93;;;1.65;;
70406;SDS011;57821;52.202;0.154;2022-10-31T15:37:10;11.70;;;1.75;;
70406;SDS011;57821;52.202;0.154;2022-10-31T15:39:38;7.93;;;1.73;;
70406;SDS011;57821;52.202;0.154;2022-10-31T15:42:04;10.90;;;1.90;;
70406;SDS011;57821;52.202;0.154;2022-10-31T15:44:41;12.93;;;1.70;;
70406;SDS011;57821;52.202;0.154;2022-10-31T15:47:18;12.90;;;1.67;;
70406;SDS011;57821;52.202;0.154;2022-10-31T15:49:54;8.45;;;1.67;;
70406;SDS011;57821;52.202;0.154;2022-10-31T15:57:41;7.88;;;1.45;;
70406;SDS011;57821;52.202;0.154;2022-10-31T16:02:48;11.25;;;1.85;;
70406;SDS011;57821;52.202;0.154;2022-10-31T16:05:16;7.82;;;1.95;;
70406;SDS011;57821;52.202;0.154;2022-10-31T16:07:48;10.23;;;1.70;;
70406;SDS011;57821;52.202;0.154;2022-10-31T16:10:23;8.02;;;1.65;;
70406;SDS011;57821;52.202;0.154;2022-10-31T16:12:51;8.30;;;1.40;;
70406;SDS011;57821;52.202;0.154;2022-10-31T16:15:19;10.75;;;1.65;;
70406;SDS011;57821;52.202;0.154;2022-10-31T16:17:47;10.88;;;1.60;;
70406;SDS011;57821;52.202;0.154;2022-10-31T16:20:26;9.93;;;2.25;;
70406;SDS011;57821;52.202;0.154;2022-10-31T16:22:55;12.48;;;2.75;;
70406;SDS011;57821;52.202;0.154;2022-10-31T16:25:28;10.80;;;2.10;;
70406;SDS011;57821;52.202;0.154;2022-10-31T16:28:03;11.02;;;1.60;;
70406;SDS011;57821;52.202;0.154;2022-10-31T16:33:02;6.88;;;1.55;;
70406;SDS011;57821;52.202;0.154;2022-10-31T16:35:36;8.48;;;1.90;;
70406;SDS011;57821;52.202;0.154;2022-10-31T16:38:04;8.30;;;1.85;;
70406;SDS011;57821;52.202;0.154;2022-10-31T16:40:31;10.65;;;2.10;;
70406;SDS011;57821;52.202;0.154;2022-10-31T16:42:58;7.05;;;1.50;;
70406;SDS011;57821;52.202;0.154;2022-10-31T16:45:28;6.95;;;1.73;;
70406;SDS011;57821;52.202;0.154;2022-10-31T16:48:03;7.20;;;1.92;;
70406;SDS011;57821;52.202;0.154;2022-10-31T16:50:32;9.82;;;1.80;;
70406;SDS011;57821;52.202;0.154;2022-10-31T16:52:59;10.88;;;1.42;;
70406;SDS011;57821;52.202;0.154;2022-10-31T16:55:43;8.48;;;1.73;;
70406;SDS011;57821;52.202;0.154;2022-10-31T16:58:23;10.10;;;1.80;;
70406;SDS011;57821;52.202;0.154;2022-10-31T17:00:53;5.95;;;1.48;;
70406;SDS011;57821;52.202;0.154;2022-10-31T17:03:20;10.38;;;2.00;;
70406;SDS011;57821;52.202;0.154;2022-10-31T17:05:46;11.18;;;2.45;;
70406;SDS011;57821;52.202;0.154;2022-10-31T17:08:13;11.35;;;2.35;;
70406;SDS011;57821;52.202;0.154;2022-10-31T17:10:40;13.52;;;3.25;;
70406;SDS011;57821;52.202;0.154;2022-10-31T17:13:13;11.32;;;2.83;;
70406;SDS011;57821;52.202;0.154;2022-10-31T17:15:47;9.68;;;2.45;;
70406;SDS011;57821;52.202;0.154;2022-10-31T17:18:16;8.32;;;2.78;;
70406;SDS011;57821;52.202;0.154;2022-10-31T17:20:54;12.40;;;2.88;;
70406;SDS011;57821;52.202;0.154;2022-10-31T17:23:25;9.80;;;2.45;;
70406;SDS011;57821;52.202;0.154;2022-10-31T17:25:52;12.68;;;2.97;;
70406;SDS011;57821;52.202;0.154;2022-10-31T17:28:18;11.05;;;3.17;;
70406;SDS011;57821;52.202;0.154;2022-10-31T17:30:45;9.05;;;2.75;;
70406;SDS011;57821;52.202;0.154;2022-10-31T17:33:12;15.80;;;2.67;;